Montgomery, Minnesota
Current Conditions -  °F | °C
As of 6:14 AM on Monday 22 Dec 2014 (Local Time) from KFBL Reporting Station
Haze Haze  
Wind Chill: 29°   Ceiling: 600
Heat Index: 37°   Visibility: 4mi
Dew Point: 36°   Wind: 13mph
Humidity: 93%   Direction: 140°SE
Pressure: 29.66"   Gusts: NA
Location:  44.44°N, 93.58°W
Report Text: KFBL 221214Z AUTO 14011KT 4SM BR OVC006 03/02 A2966 RMK AO2
Loading
Personal Weather Stations






























Interactive Weather Map New forecast layout! Learn more

10-Day Weather Forecast

Advertisements
Track Severe Weather on mobile